sensor_id;sensor_type;location;lat;lon;timestamp;pressure;altitude;pressure_sealevel;temperature;humidity
24620;BME280;12763;55.802;37.404;2024-01-06T00:01:41;99051.97;;;-13.57;75.86
24620;BME280;12763;55.802;37.404;2024-01-06T00:04:07;99054.13;;;-13.48;76.74
24620;BME280;12763;55.802;37.404;2024-01-06T00:06:33;99046.34;;;-13.68;78.64
24620;BME280;12763;55.802;37.404;2024-01-06T00:08:59;99046.63;;;-13.40;79.07
24620;BME280;12763;55.802;37.404;2024-01-06T00:11:25;99045.75;;;-13.40;78.65
24620;BME280;12763;55.802;37.404;2024-01-06T00:13:51;99047.19;;;-13.50;78.33
24620;BME280;12763;55.802;37.404;2024-01-06T00:16:18;99039.63;;;-13.58;79.20
24620;BME280;12763;55.802;37.404;2024-01-06T00:18:45;99017.91;;;-13.49;79.07
24620;BME280;12763;55.802;37.404;2024-01-06T00:21:10;99022.78;;;-13.74;79.59
24620;BME280;12763;55.802;37.404;2024-01-06T00:23:36;99015.72;;;-13.58;80.44
24620;BME280;12763;55.802;37.404;2024-01-06T00:26:03;99020.06;;;-13.40;80.71
24620;BME280;12763;55.802;37.404;2024-01-06T00:28:29;99037.25;;;-13.47;80.66
24620;BME280;12763;55.802;37.404;2024-01-06T00:30:55;99030.84;;;-13.43;81.43
24620;BME280;12763;55.802;37.404;2024-01-06T00:33:21;99023.63;;;-13.56;81.92
24620;BME280;12763;55.802;37.404;2024-01-06T00:35:47;99026.03;;;-13.36;83.29
24620;BME280;12763;55.802;37.404;2024-01-06T00:38:14;99021.81;;;-13.23;83.71
24620;BME280;12763;55.802;37.404;2024-01-06T00:40:40;99012.88;;;-13.06;83.24
24620;BME280;12763;55.802;37.404;2024-01-06T00:43:05;99018.13;;;-13.21;82.25
24620;BME280;12763;55.802;37.404;2024-01-06T00:45:31;99032.16;;;-13.19;82.40
24620;BME280;12763;55.802;37.404;2024-01-06T00:47:57;99022.84;;;-13.10;82.31
24620;BME280;12763;55.802;37.404;2024-01-06T00:50:23;99032.00;;;-13.15;83.18
24620;BME280;12763;55.802;37.404;2024-01-06T00:52:49;99024.56;;;-13.09;82.87
24620;BME280;12763;55.802;37.404;2024-01-06T00:55:22;99035.81;;;-13.05;82.88
24620;BME280;12763;55.802;37.404;2024-01-06T00:57:48;99040.13;;;-13.34;82.89
24620;BME280;12763;55.802;37.404;2024-01-06T01:00:15;99040.91;;;-13.17;83.22
24620;BME280;12763;55.802;37.404;2024-01-06T01:02:40;99044.41;;;-13.16;83.62
24620;BME280;12763;55.802;37.404;2024-01-06T01:05:07;99043.63;;;-13.02;83.41
24620;BME280;12763;55.802;37.404;2024-01-06T01:07:33;99045.19;;;-12.98;83.25
24620;BME280;12763;55.802;37.404;2024-01-06T01:09:59;99042.69;;;-13.01;82.69
24620;BME280;12763;55.802;37.404;2024-01-06T01:12:25;99047.41;;;-13.06;82.42
24620;BME280;12763;55.802;37.404;2024-01-06T01:14:52;99049.91;;;-13.03;82.51
24620;BME280;12763;55.802;37.404;2024-01-06T01:17:18;99049.03;;;-12.88;81.92
24620;BME280;12763;55.802;37.404;2024-01-06T01:19:44;99049.72;;;-13.32;82.12
24620;BME280;12763;55.802;37.404;2024-01-06T01:22:11;99045.41;;;-13.03;83.22
24620;BME280;12763;55.802;37.404;2024-01-06T01:24:37;99048.16;;;-12.89;82.68
24620;BME280;12763;55.802;37.404;2024-01-06T01:27:03;99052.97;;;-12.80;82.11
24620;BME280;12763;55.802;37.404;2024-01-06T01:29:29;99043.38;;;-12.82;81.51
24620;BME280;12763;55.802;37.404;2024-01-06T01:31:55;99045.06;;;-12.97;81.62
24620;BME280;12763;55.802;37.404;2024-01-06T01:34:21;99049.69;;;-13.00;81.70
24620;BME280;12763;55.802;37.404;2024-01-06T01:36:47;99046.47;;;-12.90;82.30
24620;BME280;12763;55.802;37.404;2024-01-06T01:39:13;99031.19;;;-13.02;82.61
24620;BME280;12763;55.802;37.404;2024-01-06T01:41:40;99024.25;;;-13.04;83.50
24620;BME280;12763;55.802;37.404;2024-01-06T01:44:06;99026.91;;;-12.89;83.58
24620;BME280;12763;55.802;37.404;2024-01-06T01:46:32;99028.13;;;-12.79;83.63
24620;BME280;12763;55.802;37.404;2024-01-06T01:49:00;99034.09;;;-12.75;82.77
24620;BME280;12763;55.802;37.404;2024-01-06T01:51:29;99036.00;;;-12.77;83.02
24620;BME280;12763;55.802;37.404;2024-01-06T01:53:57;99032.22;;;-12.89;85.42
24620;BME280;12763;55.802;37.404;2024-01-06T01:56:24;99018.16;;;-12.75;83.52
24620;BME280;12763;55.802;37.404;2024-01-06T01:58:51;99017.75;;;-12.83;83.55
24620;BME280;12763;55.802;37.404;2024-01-06T02:01:18;99024.78;;;-12.82;83.62
24620;BME280;12763;55.802;37.404;2024-01-06T02:03:44;99025.97;;;-12.72;83.11
24620;BME280;12763;55.802;37.404;2024-01-06T02:06:11;99036.84;;;-12.61;83.07
24620;BME280;12763;55.802;37.404;2024-01-06T02:08:37;99036.00;;;-12.77;82.29
24620;BME280;12763;55.802;37.404;2024-01-06T02:11:04;99029.44;;;-12.56;81.47
24620;BME280;12763;55.802;37.404;2024-01-06T02:13:35;99041.56;;;-12.66;80.88
24620;BME280;12763;55.802;37.404;2024-01-06T02:16:03;99050.75;;;-13.19;79.83
24620;BME280;12763;55.802;37.404;2024-01-06T02:18:31;99052.84;;;-13.41;80.98
24620;BME280;12763;55.802;37.404;2024-01-06T02:20:59;99045.66;;;-13.39;80.98
24620;BME280;12763;55.802;37.404;2024-01-06T02:23:29;99056.63;;;-13.45;81.20
24620;BME280;12763;55.802;37.404;2024-01-06T02:25:55;99055.53;;;-13.58;82.30
24620;BME280;12763;55.802;37.404;2024-01-06T02:28:22;99050.97;;;-13.39;82.05
24620;BME280;12763;55.802;37.404;2024-01-06T02:30:49;99050.91;;;-13.22;82.11
24620;BME280;12763;55.802;37.404;2024-01-06T02:33:15;99050.56;;;-13.00;81.62
24620;BME280;12763;55.802;37.404;2024-01-06T02:35:41;99046.81;;;-13.11;80.74
24620;BME280;12763;55.802;37.404;2024-01-06T02:38:07;99053.59;;;-13.54;80.21
24620;BME280;12763;55.802;37.404;2024-01-06T02:40:34;99059.38;;;-13.63;80.82
24620;BME280;12763;55.802;37.404;2024-01-06T02:43:00;99048.81;;;-13.48;80.72
24620;BME280;12763;55.802;37.404;2024-01-06T02:45:26;99052.28;;;-13.30;80.48
24620;BME280;12763;55.802;37.404;2024-01-06T02:47:52;99039.78;;;-13.28;80.52
24620;BME280;12763;55.802;37.404;2024-01-06T02:50:18;99037.91;;;-13.10;80.29
24620;BME280;12763;55.802;37.404;2024-01-06T02:52:44;99043.06;;;-13.07;79.56
24620;BME280;12763;55.802;37.404;2024-01-06T02:55:13;99042.25;;;-13.25;79.36
24620;BME280;12763;55.802;37.404;2024-01-06T02:57:40;99045.59;;;-13.22;79.07
24620;BME280;12763;55.802;37.404;2024-01-06T03:00:09;99046.03;;;-13.62;77.94
24620;BME280;12763;55.802;37.404;2024-01-06T03:02:35;99040.84;;;-13.48;79.21
24620;BME280;12763;55.802;37.404;2024-01-06T03:05:02;99041.38;;;-13.41;79.93
24620;BME280;12763;55.802;37.404;2024-01-06T03:07:31;99037.19;;;-13.45;79.41
24620;BME280;12763;55.802;37.404;2024-01-06T03:09:57;99028.78;;;-13.53;78.13
24620;BME280;12763;55.802;37.404;2024-01-06T03:12:23;99041.03;;;-13.51;78.59
24620;BME280;12763;55.802;37.404;2024-01-06T03:14:49;99042.25;;;-13.58;78.06
24620;BME280;12763;55.802;37.404;2024-01-06T03:17:17;99035.63;;;-13.49;77.77
24620;BME280;12763;55.802;37.404;2024-01-06T03:19:43;99031.56;;;-13.24;77.90
24620;BME280;12763;55.802;37.404;2024-01-06T03:22:10;99044.88;;;-13.41;76.96
24620;BME280;12763;55.802;37.404;2024-01-06T03:24:35;99032.78;;;-13.62;76.96
24620;BME280;12763;55.802;37.404;2024-01-06T03:27:01;99038.56;;;-13.71;77.76
24620;BME280;12763;55.802;37.404;2024-01-06T03:29:28;99024.56;;;-13.42;77.67
24620;BME280;12763;55.802;37.404;2024-01-06T03:31:54;99039.94;;;-13.31;77.54
24620;BME280;12763;55.802;37.404;2024-01-06T03:34:20;99036.75;;;-13.38;77.82
24620;BME280;12763;55.802;37.404;2024-01-06T03:36:46;99046.44;;;-13.37;77.57
24620;BME280;12763;55.802;37.404;2024-01-06T03:39:12;99045.44;;;-13.19;78.44
24620;BME280;12763;55.802;37.404;2024-01-06T03:41:39;99037.91;;;-13.10;78.12
24620;BME280;12763;55.802;37.404;2024-01-06T03:44:06;99045.00;;;-12.95;77.31
24620;BME280;12763;55.802;37.404;2024-01-06T03:46:35;99043.06;;;-13.07;77.04
24620;BME280;12763;55.802;37.404;2024-01-06T03:49:01;99044.16;;;-13.11;76.98
24620;BME280;12763;55.802;37.404;2024-01-06T03:51:27;99044.22;;;-12.97;77.51
24620;BME280;12763;55.802;37.404;2024-01-06T03:53:54;99036.78;;;-13.06;77.31
24620;BME280;12763;55.802;37.404;2024-01-06T03:56:20;99041.50;;;-12.96;77.53
24620;BME280;12763;55.802;37.404;2024-01-06T03:58:46;99040.78;;;-12.99;77.12
24620;BME280;12763;55.802;37.404;2024-01-06T04:01:12;99044.22;;;-12.97;77.16
24620;BME280;12763;55.802;37.404;2024-01-06T04:03:39;99041.31;;;-13.08;77.50
24620;BME280;12763;55.802;37.404;2024-01-06T04:06:08;99044.75;;;-13.06;77.71
24620;BME280;12763;55.802;37.404;2024-01-06T04:08:36;99042.69;;;-13.17;78.29
24620;BME280;12763;55.802;37.404;2024-01-06T04:11:02;99038.16;;;-13.15;78.94
24620;BME280;12763;55.802;37.404;2024-01-06T04:13:28;99045.13;;;-13.12;78.99
24620;BME280;12763;55.802;37.404;2024-01-06T04:15:54;99039.97;;;-13.15;77.96
24620;BME280;12763;55.802;37.404;2024-01-06T04:18:21;99048.59;;;-13.28;77.50
24620;BME280;12763;55.802;37.404;2024-01-06T04:20:47;99054.56;;;-13.40;77.89
24620;BME280;12763;55.802;37.404;2024-01-06T04:23:13;99051.94;;;-13.24;78.05
24620;BME280;12763;55.802;37.404;2024-01-06T04:25:38;99052.19;;;-13.29;78.80
24620;BME280;12763;55.802;37.404;2024-01-06T04:28:05;99047.84;;;-13.14;78.78
24620;BME280;12763;55.802;37.404;2024-01-06T04:30:30;99042.88;;;-13.20;78.76
24620;BME280;12763;55.802;37.404;2024-01-06T04:32:56;99048.25;;;-13.22;77.88
24620;BME280;12763;55.802;37.404;2024-01-06T04:35:25;99052.63;;;-13.21;78.08
24620;BME280;12763;55.802;37.404;2024-01-06T04:37:51;99049.03;;;-13.04;78.40
24620;BME280;12763;55.802;37.404;2024-01-06T04:40:17;99056.38;;;-13.25;78.40
24620;BME280;12763;55.802;37.404;2024-01-06T04:42:44;99048.88;;;-13.01;78.49
24620;BME280;12763;55.802;37.404;2024-01-06T04:45:10;99051.84;;;-12.91;77.98
24620;BME280;12763;55.802;37.404;2024-01-06T04:47:36;99058.78;;;-12.89;77.80
24620;BME280;12763;55.802;37.404;2024-01-06T04:50:02;99058.47;;;-12.83;77.57
24620;BME280;12763;55.802;37.404;2024-01-06T04:52:29;99055.22;;;-13.03;78.15
24620;BME280;12763;55.802;37.404;2024-01-06T04:54:55;99059.38;;;-12.99;78.50
24620;BME280;12763;55.802;37.404;2024-01-06T04:57:21;99057.06;;;-13.05;79.26
24620;BME280;12763;55.802;37.404;2024-01-06T04:59:47;99068.19;;;-13.30;79.74
24620;BME280;12763;55.802;37.404;2024-01-06T05:02:13;99070.94;;;-13.32;79.82
24620;BME280;12763;55.802;37.404;2024-01-06T05:04:39;99073.03;;;-13.21;79.47
24620;BME280;12763;55.802;37.404;2024-01-06T05:07:05;99068.31;;;-13.16;79.48
24620;BME280;12763;55.802;37.404;2024-01-06T05:09:31;99070.97;;;-13.16;79.28
24620;BME280;12763;55.802;37.404;2024-01-06T05:11:56;99070.09;;;-13.17;78.76
24620;BME280;12763;55.802;37.404;2024-01-06T05:14:22;99073.16;;;-13.40;78.16
24620;BME280;12763;55.802;37.404;2024-01-06T05:16:48;99084.81;;;-13.27;78.00
24620;BME280;12763;55.802;37.404;2024-01-06T05:19:14;99084.53;;;-13.38;76.96
24620;BME280;12763;55.802;37.404;2024-01-06T05:21:47;99080.81;;;-13.34;76.75
24620;BME280;12763;55.802;37.404;2024-01-06T05:24:13;99078.94;;;-13.49;77.07
24620;BME280;12763;55.802;37.404;2024-01-06T05:26:39;99088.66;;;-13.65;76.77
24620;BME280;12763;55.802;37.404;2024-01-06T05:29:05;99081.00;;;-13.71;76.84
24620;BME280;12763;55.802;37.404;2024-01-06T05:31:31;99082.31;;;-13.62;76.69
24620;BME280;12763;55.802;37.404;2024-01-06T05:33:57;99079.06;;;-13.67;76.68
24620;BME280;12763;55.802;37.404;2024-01-06T05:36:23;99080.38;;;-13.76;77.11
24620;BME280;12763;55.802;37.404;2024-01-06T05:38:49;99061.34;;;-13.67;77.09
24620;BME280;12763;55.802;37.404;2024-01-06T05:41:15;99072.16;;;-13.54;76.71
24620;BME280;12763;55.802;37.404;2024-01-06T05:43:41;99079.03;;;-13.50;76.45
24620;BME280;12763;55.802;37.404;2024-01-06T05:46:08;99063.31;;;-13.38;76.29
24620;BME280;12763;55.802;37.404;2024-01-06T05:48:36;99072.84;;;-13.34;76.44
24620;BME280;12763;55.802;37.404;2024-01-06T05:51:05;99068.56;;;-13.21;76.55
24620;BME280;12763;55.802;37.404;2024-01-06T05:53:31;99079.22;;;-13.38;76.28
24620;BME280;12763;55.802;37.404;2024-01-06T05:55:57;99078.16;;;-13.34;76.93
24620;BME280;12763;55.802;37.404;2024-01-06T05:58:23;99079.69;;;-13.30;77.24
24620;BME280;12763;55.802;37.404;2024-01-06T06:00:50;99074.97;;;-13.25;77.49
24620;BME280;12763;55.802;37.404;2024-01-06T06:03:16;99096.25;;;-13.42;77.96
24620;BME280;12763;55.802;37.404;2024-01-06T06:05:42;99097.84;;;-13.22;78.01
24620;BME280;12763;55.802;37.404;2024-01-06T06:08:08;99093.34;;;-13.20;77.37
24620;BME280;12763;55.802;37.404;2024-01-06T06:10:34;99102.94;;;-13.18;77.44
24620;BME280;12763;55.802;37.404;2024-01-06T06:13:17;99110.91;;;-13.18;76.82
24620;BME280;12763;55.802;37.404;2024-01-06T06:15:43;99111.72;;;-13.17;76.52
24620;BME280;12763;55.802;37.404;2024-01-06T06:18:09;99102.41;;;-13.08;76.32
24620;BME280;12763;55.802;37.404;2024-01-06T06:20:35;99111.38;;;-13.27;75.67
24620;BME280;12763;55.802;37.404;2024-01-06T06:23:01;99102.34;;;-13.07;76.12
24620;BME280;12763;55.802;37.404;2024-01-06T06:25:27;99100.53;;;-13.06;75.27
24620;BME280;12763;55.802;37.404;2024-01-06T06:27:53;99107.28;;;-13.17;74.83
24620;BME280;12763;55.802;37.404;2024-01-06T06:30:19;99101.59;;;-13.09;74.65
24620;BME280;12763;55.802;37.404;2024-01-06T06:32:45;99116.53;;;-13.24;74.25
24620;BME280;12763;55.802;37.404;2024-01-06T06:35:11;99119.91;;;-13.37;74.96
24620;BME280;12763;55.802;37.404;2024-01-06T06:37:37;99118.06;;;-13.20;74.87
24620;BME280;12763;55.802;37.404;2024-01-06T06:40:04;99116.97;;;-13.15;74.55
24620;BME280;12763;55.802;37.404;2024-01-06T06:42:30;99121.34;;;-13.14;74.09
24620;BME280;12763;55.802;37.404;2024-01-06T06:44:56;99124.19;;;-12.86;74.05
24620;BME280;12763;55.802;37.404;2024-01-06T06:47:22;99123.31;;;-13.18;73.46
24620;BME280;12763;55.802;37.404;2024-01-06T06:49:48;99129.38;;;-13.00;74.11
24620;BME280;12763;55.802;37.404;2024-01-06T06:52:14;99121.25;;;-13.13;73.88
24620;BME280;12763;55.802;37.404;2024-01-06T06:54:40;99125.97;;;-13.02;74.37
24620;BME280;12763;55.802;37.404;2024-01-06T06:57:06;99120.16;;;-12.93;74.28
24620;BME280;12763;55.802;37.404;2024-01-06T06:59:32;99127.09;;;-13.06;74.10
24620;BME280;12763;55.802;37.404;2024-01-06T07:01:58;99124.25;;;-13.03;73.91
24620;BME280;12763;55.802;37.404;2024-01-06T07:04:24;99134.28;;;-13.08;74.21
24620;BME280;12763;55.802;37.404;2024-01-06T07:06:51;99129.16;;;-12.96;74.36
24620;BME280;12763;55.802;37.404;2024-01-06T07:09:17;99129.44;;;-12.85;74.36
24620;BME280;12763;55.802;37.404;2024-01-06T07:11:43;99121.03;;;-12.93;74.01
24620;BME280;12763;55.802;37.404;2024-01-06T07:14:09;99113.81;;;-12.75;73.93
24620;BME280;12763;55.802;37.404;2024-01-06T07:16:35;99117.78;;;-12.67;74.40
24620;BME280;12763;55.802;37.404;2024-01-06T07:19:01;99115.03;;;-12.81;74.02
24620;BME280;12763;55.802;37.404;2024-01-06T07:21:27;99128.41;;;-12.82;74.58
24620;BME280;12763;55.802;37.404;2024-01-06T07:23:53;99131.09;;;-12.99;74.53
24620;BME280;12763;55.802;37.404;2024-01-06T07:26:19;99133.69;;;-13.13;74.80
24620;BME280;12763;55.802;37.404;2024-01-06T07:28:45;99136.94;;;-13.08;75.95
24620;BME280;12763;55.802;37.404;2024-01-06T07:31:11;99125.50;;;-12.62;75.04
24620;BME280;12763;55.802;37.404;2024-01-06T07:33:37;99130.28;;;-12.53;74.28
24620;BME280;12763;55.802;37.404;2024-01-06T07:36:03;99125.78;;;-12.51;73.55
24620;BME280;12763;55.802;37.404;2024-01-06T07:38:29;99130.97;;;-12.34;73.44
24620;BME280;12763;55.802;37.404;2024-01-06T07:40:56;99132.53;;;-12.30;73.10
24620;BME280;12763;55.802;37.404;2024-01-06T07:43:22;99130.22;;;-12.36;72.29
24620;BME280;12763;55.802;37.404;2024-01-06T07:45:48;99127.38;;;-12.17;73.28
24620;BME280;12763;55.802;37.404;2024-01-06T07:48:16;99126.94;;;-12.10;72.54
24620;BME280;12763;55.802;37.404;2024-01-06T07:50:42;99140.41;;;-12.13;72.37
24620;BME280;12763;55.802;37.404;2024-01-06T07:53:09;99135.09;;;-12.13;71.74
24620;BME280;12763;55.802;37.404;2024-01-06T07:55:35;99127.66;;;-11.92;72.02
24620;BME280;12763;55.802;37.404;2024-01-06T07:58:01;99119.69;;;-11.92;71.66
24620;BME280;12763;55.802;37.404;2024-01-06T08:00:27;99111.47;;;-11.73;71.76
24620;BME280;12763;55.802;37.404;2024-01-06T08:02:53;99105.69;;;-11.96;72.01
24620;BME280;12763;55.802;37.404;2024-01-06T08:05:20;99110.25;;;-11.98;72.16
24620;BME280;12763;55.802;37.404;2024-01-06T08:07:46;99101.06;;;-11.92;72.14
24620;BME280;12763;55.802;37.404;2024-01-06T08:10:12;99114.41;;;-11.78;72.85
24620;BME280;12763;55.802;37.404;2024-01-06T08:12:38;99111.44;;;-11.87;72.56
24620;BME280;12763;55.802;37.404;2024-01-06T08:15:04;99114.13;;;-11.87;73.37
24620;BME280;12763;55.802;37.404;2024-01-06T08:17:30;99119.84;;;-11.65;72.77
24620;BME280;12763;55.802;37.404;2024-01-06T08:19:56;99114.16;;;-11.45;72.72
24620;BME280;12763;55.802;37.404;2024-01-06T08:22:22;99106.28;;;-11.47;72.28
24620;BME280;12763;55.802;37.404;2024-01-06T08:24:48;99108.78;;;-11.44;72.53
24620;BME280;12763;55.802;37.404;2024-01-06T08:27:14;99103.34;;;-11.42;72.08
24620;BME280;12763;55.802;37.404;2024-01-06T08:29:40;99098.34;;;-11.62;72.42
24620;BME280;12763;55.802;37.404;2024-01-06T08:32:06;99097.66;;;-11.36;72.29
24620;BME280;12763;55.802;37.404;2024-01-06T08:34:32;99116.75;;;-11.44;71.92
24620;BME280;12763;55.802;37.404;2024-01-06T08:36:58;99116.19;;;-11.35;72.21
24620;BME280;12763;55.802;37.404;2024-01-06T08:39:24;99111.28;;;-11.70;71.13
24620;BME280;12763;55.802;37.404;2024-01-06T08:41:50;99111.88;;;-11.65;72.18
24620;BME280;12763;55.802;37.404;2024-01-06T08:44:16;99111.94;;;-11.67;72.81
24620;BME280;12763;55.802;37.404;2024-01-06T08:46:42;99119.59;;;-11.47;72.96
24620;BME280;12763;55.802;37.404;2024-01-06T08:49:08;99112.09;;;-11.40;72.50
24620;BME280;12763;55.802;37.404;2024-01-06T08:51:34;99110.59;;;-11.30;72.11
24620;BME280;12763;55.802;37.404;2024-01-06T08:54:01;99106.97;;;-11.29;71.67
24620;BME280;12763;55.802;37.404;2024-01-06T08:56:30;99118.59;;;-11.16;71.41
24620;BME280;12763;55.802;37.404;2024-01-06T08:58:56;99108.31;;;-11.22;72.03
24620;BME280;12763;55.802;37.404;2024-01-06T09:01:22;99102.13;;;-11.08;72.43
24620;BME280;12763;55.802;37.404;2024-01-06T09:03:48;99103.75;;;-11.06;72.64
24620;BME280;12763;55.802;37.404;2024-01-06T09:06:16;99090.25;;;-11.03;72.34
24620;BME280;12763;55.802;37.404;2024-01-06T09:08:42;99089.28;;;-10.88;72.20
24620;BME280;12763;55.802;37.404;2024-01-06T09:11:07;99091.66;;;-10.97;72.35
24620;BME280;12763;55.802;37.404;2024-01-06T09:13:33;99099.56;;;-10.96;71.73
24620;BME280;12763;55.802;37.404;2024-01-06T09:16:00;99088.31;;;-10.87;72.04
24620;BME280;12763;55.802;37.404;2024-01-06T09:18:28;99084.53;;;-10.83;71.64
24620;BME280;12763;55.802;37.404;2024-01-06T09:20:56;99096.31;;;-10.87;71.16
24620;BME280;12763;55.802;37.404;2024-01-06T09:23:22;99092.59;;;-10.84;71.25
24620;BME280;12763;55.802;37.404;2024-01-06T09:25:48;99081.28;;;-10.88;71.32
24620;BME280;12763;55.802;37.404;2024-01-06T09:28:16;99072.81;;;-10.80;71.55
24620;BME280;12763;55.802;37.404;2024-01-06T09:30:42;99068.97;;;-10.76;71.69
24620;BME280;12763;55.802;37.404;2024-01-06T09:33:08;99071.78;;;-10.92;72.14
24620;BME280;12763;55.802;37.404;2024-01-06T09:35:34;99070.41;;;-10.70;72.51
24620;BME280;12763;55.802;37.404;2024-01-06T09:38:00;99070.38;;;-10.56;72.46
24620;BME280;12763;55.802;37.404;2024-01-06T09:40:26;99065.25;;;-10.59;72.09
24620;BME280;12763;55.802;37.404;2024-01-06T09:42:54;99069.47;;;-10.69;72.58
24620;BME280;12763;55.802;37.404;2024-01-06T20:52:01;99451.28;;;-14.62;100.00
24620;BME280;12763;55.802;37.404;2024-01-06T20:54:27;99451.56;;;-14.48;100.00
24620;BME280;12763;55.802;37.404;2024-01-06T20:56:53;99444.00;;;-14.36;100.00
24620;BME280;12763;55.802;37.404;2024-01-06T20:59:19;99446.69;;;-14.38;100.00
24620;BME280;12763;55.802;37.404;2024-01-06T21:01:45;99451.72;;;-14.32;99.64
24620;BME280;12763;55.802;37.404;2024-01-06T21:04:11;99463.25;;;-13.94;98.42
24620;BME280;12763;55.802;37.404;2024-01-06T21:06:37;99458.50;;;-14.06;96.90
24620;BME280;12763;55.802;37.404;2024-01-06T21:09:03;99464.69;;;-14.06;96.00
24620;BME280;12763;55.802;37.404;2024-01-06T21:11:32;99459.63;;;-13.92;94.91
24620;BME280;12763;55.802;37.404;2024-01-06T21:13:57;99457.44;;;-14.02;94.17
24620;BME280;12763;55.802;37.404;2024-01-06T21:16:23;99451.75;;;-14.13;93.59
24620;BME280;12763;55.802;37.404;2024-01-06T21:18:52;99467.00;;;-14.18;92.81
24620;BME280;12763;55.802;37.404;2024-01-06T21:21:18;99469.19;;;-14.08;92.51
24620;BME280;12763;55.802;37.404;2024-01-06T21:23:45;99463.69;;;-14.03;91.99
24620;BME280;12763;55.802;37.404;2024-01-06T21:26:11;99468.72;;;-14.17;91.44
24620;BME280;12763;55.802;37.404;2024-01-06T21:28:37;99472.13;;;-14.14;91.45
24620;BME280;12763;55.802;37.404;2024-01-06T21:31:03;99475.09;;;-14.21;91.61
24620;BME280;12763;55.802;37.404;2024-01-06T21:33:29;99471.56;;;-14.02;91.11
24620;BME280;12763;55.802;37.404;2024-01-06T21:35:55;99473.91;;;-14.14;90.72
24620;BME280;12763;55.802;37.404;2024-01-06T21:38:21;99483.47;;;-14.51;91.49
24620;BME280;12763;55.802;37.404;2024-01-06T21:40:47;99478.19;;;-14.51;92.01
24620;BME280;12763;55.802;37.404;2024-01-06T21:43:14;99479.50;;;-14.41;92.47
24620;BME280;12763;55.802;37.404;2024-01-06T21:45:40;99483.13;;;-14.63;92.06
24620;BME280;12763;55.802;37.404;2024-01-06T21:48:06;99494.97;;;-14.72;93.23
24620;BME280;12763;55.802;37.404;2024-01-06T21:50:32;99493.75;;;-14.85;93.50
24620;BME280;12763;55.802;37.404;2024-01-06T21:52:58;99495.28;;;-14.79;93.21
24620;BME280;12763;55.802;37.404;2024-01-06T21:55:25;99508.75;;;-14.85;93.67
24620;BME280;12763;55.802;37.404;2024-01-06T21:57:51;99522.50;;;-14.76;93.08
24620;BME280;12763;55.802;37.404;2024-01-06T22:00:17;99519.97;;;-14.79;93.55
24620;BME280;12763;55.802;37.404;2024-01-06T22:02:47;99529.72;;;-14.79;93.80
24620;BME280;12763;55.802;37.404;2024-01-06T22:05:17;99528.38;;;-14.89;93.97
24620;BME280;12763;55.802;37.404;2024-01-06T22:07:43;99527.75;;;-14.96;93.71
24620;BME280;12763;55.802;37.404;2024-01-06T22:10:09;99537.97;;;-14.87;93.67
24620;BME280;12763;55.802;37.404;2024-01-06T22:12:36;99533.97;;;-14.97;93.64
24620;BME280;12763;55.802;37.404;2024-01-06T22:15:02;99538.84;;;-15.08;93.88
24620;BME280;12763;55.802;37.404;2024-01-06T22:17:31;99532.16;;;-15.18;94.17
24620;BME280;12763;55.802;37.404;2024-01-06T22:19:57;99533.22;;;-15.01;94.66
24620;BME280;12763;55.802;37.404;2024-01-06T22:22:23;99531.16;;;-15.16;94.02
24620;BME280;12763;55.802;37.404;2024-01-06T22:24:50;99527.16;;;-15.26;94.13
24620;BME280;12763;55.802;37.404;2024-01-06T22:27:16;99535.97;;;-15.25;94.53
24620;BME280;12763;55.802;37.404;2024-01-06T22:29:42;99543.38;;;-15.12;94.29
24620;BME280;12763;55.802;37.404;2024-01-06T22:32:08;99554.16;;;-15.16;94.46
24620;BME280;12763;55.802;37.404;2024-01-06T22:34:35;99554.34;;;-14.99;94.32
24620;BME280;12763;55.802;37.404;2024-01-06T22:37:01;99553.44;;;-15.21;94.17
24620;BME280;12763;55.802;37.404;2024-01-06T22:39:27;99561.88;;;-15.33;94.40
24620;BME280;12763;55.802;37.404;2024-01-06T22:41:53;99558.84;;;-15.46;94.78
24620;BME280;12763;55.802;37.404;2024-01-06T22:44:20;99558.00;;;-15.46;94.86
24620;BME280;12763;55.802;37.404;2024-01-06T22:46:46;99566.72;;;-15.44;94.38
24620;BME280;12763;55.802;37.404;2024-01-06T22:49:12;99573.59;;;-15.87;94.37
24620;BME280;12763;55.802;37.404;2024-01-06T22:51:38;99578.72;;;-15.57;94.87
24620;BME280;12763;55.802;37.404;2024-01-06T22:54:04;99583.63;;;-15.48;93.88
24620;BME280;12763;55.802;37.404;2024-01-06T22:56:30;99598.53;;;-15.69;93.55
24620;BME280;12763;55.802;37.404;2024-01-06T22:58:56;99591.19;;;-15.86;93.85
24620;BME280;12763;55.802;37.404;2024-01-06T23:01:22;99599.41;;;-15.93;94.41
24620;BME280;12763;55.802;37.404;2024-01-06T23:03:51;99604.13;;;-15.78;93.96
24620;BME280;12763;55.802;37.404;2024-01-06T23:06:25;99612.16;;;-15.56;94.31
24620;BME280;12763;55.802;37.404;2024-01-06T23:08:51;99620.19;;;-15.83;93.78
24620;BME280;12763;55.802;37.404;2024-01-06T23:11:18;99619.03;;;-15.76;93.29
24620;BME280;12763;55.802;37.404;2024-01-06T23:13:44;99619.50;;;-16.14;93.70
24620;BME280;12763;55.802;37.404;2024-01-06T23:16:10;99629.22;;;-15.90;93.76
24620;BME280;12763;55.802;37.404;2024-01-06T23:18:39;99641.47;;;-15.87;93.49
24620;BME280;12763;55.802;37.404;2024-01-06T23:21:08;99650.41;;;-16.16;93.63
24620;BME280;12763;55.802;37.404;2024-01-06T23:23:35;99650.00;;;-16.30;93.88
24620;BME280;12763;55.802;37.404;2024-01-06T23:26:02;99651.19;;;-16.12;93.81
24620;BME280;12763;55.802;37.404;2024-01-06T23:28:28;99664.38;;;-16.39;94.17
24620;BME280;12763;55.802;37.404;2024-01-06T23:30:53;99660.72;;;-16.35;94.76
24620;BME280;12763;55.802;37.404;2024-01-06T23:33:19;99669.66;;;-16.39;94.50
24620;BME280;12763;55.802;37.404;2024-01-06T23:35:46;99675.53;;;-16.29;94.30
24620;BME280;12763;55.802;37.404;2024-01-06T23:38:12;99668.00;;;-16.43;94.42
24620;BME280;12763;55.802;37.404;2024-01-06T23:40:38;99671.06;;;-16.29;93.81
24620;BME280;12763;55.802;37.404;2024-01-06T23:43:05;99675.63;;;-16.32;93.71